createdAt,value
2022-11-09T00:00:57.549Z,3.73
2022-11-09T00:03:25.745Z,1.27
2022-11-09T00:05:57.377Z,2.37
2022-11-09T00:08:25.636Z,1.87
2022-11-09T00:10:53.865Z,1.07
2022-11-09T00:13:23.619Z,4.43
2022-11-09T00:15:51.931Z,4.63
2022-11-09T00:18:20.189Z,1.73
2022-11-09T00:20:48.740Z,1.33
2022-11-09T00:23:17.669Z,1.57
2022-11-09T00:25:46.201Z,2.20
2022-11-09T00:28:14.463Z,2.30
2022-11-09T00:30:44.238Z,1.83
2022-11-09T00:33:12.445Z,1.97
2022-11-09T00:35:40.727Z,1.83
2022-11-09T00:38:08.998Z,1.70
2022-11-09T00:40:37.261Z,2.53
2022-11-09T00:43:05.587Z,1.47
2022-11-09T00:45:33.805Z,2.50
2022-11-09T00:48:03.357Z,3.20
2022-11-09T00:50:31.581Z,3.70
2022-11-09T00:52:59.813Z,1.97
2022-11-09T00:55:28.023Z,1.83
2022-11-09T00:57:56.279Z,2.60
2022-11-09T01:00:24.895Z,3.67
2022-11-09T01:02:53.124Z,1.63
2022-11-09T01:05:22.833Z,2.30
2022-11-09T01:07:51.060Z,2.57
2022-11-09T01:10:19.351Z,1.87
2022-11-09T01:12:47.604Z,1.20
2022-11-09T01:15:15.807Z,5.27
2022-11-09T01:17:44.058Z,1.60
2022-11-09T01:20:13.083Z,1.57
2022-11-09T01:22:42.680Z,0.93
2022-11-09T01:25:11.134Z,2.23
2022-11-09T01:27:39.381Z,2.63
2022-11-09T01:30:08.162Z,3.53
2022-11-09T01:32:36.413Z,1.77
2022-11-09T01:35:04.656Z,2.03
2022-11-09T01:37:32.921Z,1.57
2022-11-09T01:40:02.494Z,4.60
2022-11-09T01:42:30.711Z,2.40
2022-11-09T01:45:22.578Z,1.70
2022-11-09T01:47:51.312Z,1.80
2022-11-09T01:50:20.436Z,2.90
2022-11-09T01:52:48.893Z,2.97
2022-11-09T01:55:18.863Z,2.13
2022-11-09T01:57:49.332Z,1.53
2022-11-09T02:00:17.990Z,2.10
2022-11-09T02:02:47.249Z,2.37
2022-11-09T02:05:16.595Z,2.17
2022-11-09T02:07:44.826Z,2.60
2022-11-09T02:10:14.545Z,2.37
2022-11-09T02:12:44.114Z,1.30
2022-11-09T02:15:12.339Z,4.27
2022-11-09T02:17:40.674Z,1.73
2022-11-09T02:20:11.334Z,1.97
2022-11-09T02:22:39.534Z,3.50
2022-11-09T02:25:08.344Z,2.90
2022-11-09T02:27:36.593Z,3.30
2022-11-09T02:30:05.382Z,3.07
2022-11-09T02:32:33.636Z,1.27
2022-11-09T02:35:01.834Z,3.63
2022-11-09T02:37:31.888Z,3.10
2022-11-09T02:40:00.599Z,2.10
2022-11-09T02:42:28.825Z,1.80
2022-11-09T02:44:57.468Z,1.80
2022-11-09T02:47:25.675Z,3.17
2022-11-09T02:49:53.866Z,2.60
2022-11-09T02:52:22.123Z,3.87
2022-11-09T02:54:51.674Z,1.87
2022-11-09T02:57:19.898Z,2.80
2022-11-09T02:59:48.150Z,1.37
2022-11-09T03:02:16.348Z,2.50
2022-11-09T03:04:44.568Z,1.43
2022-11-09T03:07:12.911Z,1.10
2022-11-09T03:09:41.369Z,1.27
2022-11-09T03:12:28.485Z,3.07
2022-11-09T03:14:56.687Z,3.17
2022-11-09T03:17:24.913Z,1.30
2022-11-09T03:19:53.139Z,4.13
2022-11-09T03:22:21.417Z,4.83
2022-11-09T03:24:49.734Z,1.53
2022-11-09T03:27:19.461Z,2.87
2022-11-09T03:29:47.803Z,2.10
2022-11-09T03:32:16.047Z,2.10
2022-11-09T03:34:44.271Z,2.27
2022-11-09T03:37:12.531Z,1.40
2022-11-09T03:39:40.844Z,1.67
2022-11-09T03:42:09.060Z,1.43
2022-11-09T03:44:38.589Z,1.43
2022-11-09T03:47:06.892Z,2.23
2022-11-09T03:49:35.118Z,1.23
2022-11-09T03:52:03.437Z,1.23
2022-11-09T03:54:31.670Z,1.33
2022-11-09T03:56:59.873Z,2.77
2022-11-09T03:59:28.075Z,0.73
2022-11-09T04:01:57.756Z,1.30
2022-11-09T04:04:26.030Z,1.97
2022-11-09T04:06:54.302Z,0.90
2022-11-09T04:09:22.573Z,3.90
2022-11-09T04:11:50.832Z,0.60
2022-11-09T04:14:19.032Z,1.33
2022-11-09T04:16:47.305Z,1.63
2022-11-09T04:19:17.012Z,0.80
2022-11-09T04:21:45.258Z,1.57
2022-11-09T04:24:13.549Z,1.20
2022-11-09T04:26:41.735Z,2.30
2022-11-09T04:29:10.020Z,2.77
2022-11-09T04:31:38.257Z,1.37
2022-11-09T04:34:06.458Z,0.83
2022-11-09T04:36:35.999Z,1.03
2022-11-09T04:39:04.259Z,0.63
2022-11-09T04:41:32.458Z,1.03
2022-11-09T04:44:00.667Z,2.13
2022-11-09T04:46:28.898Z,1.80
2022-11-09T04:48:57.120Z,1.47
2022-11-09T04:51:25.330Z,2.90
2022-11-09T04:53:56.255Z,2.00
2022-11-09T04:56:24.512Z,1.87
2022-11-09T04:58:52.712Z,1.47
2022-11-09T05:01:20.959Z,1.90
2022-11-09T05:03:49.284Z,2.23
2022-11-09T05:06:35.687Z,1.10
2022-11-09T05:09:06.577Z,0.60
2022-11-09T05:11:34.787Z,1.77
2022-11-09T05:14:03.077Z,2.10
2022-11-09T05:16:31.283Z,3.13
2022-11-09T05:18:59.515Z,2.50
2022-11-09T05:21:27.864Z,0.50
2022-11-09T05:24:01.117Z,2.87
2022-11-09T05:26:31.854Z,0.60
2022-11-09T05:29:00.310Z,1.50
2022-11-09T05:31:28.624Z,3.57
2022-11-09T05:33:56.887Z,6.77
2022-11-09T05:36:25.124Z,2.47
2022-11-09T05:38:53.318Z,1.67
2022-11-09T05:41:21.764Z,0.70
2022-11-09T05:43:51.492Z,1.43
2022-11-09T05:46:19.842Z,1.27
2022-11-09T05:48:48.188Z,0.90
2022-11-09T05:51:16.972Z,1.30
2022-11-09T05:53:46.694Z,2.67
2022-11-09T05:56:15.366Z,1.63
2022-11-09T05:58:43.590Z,2.77
2022-11-09T06:01:13.905Z,1.43
2022-11-09T06:03:44.332Z,1.83
2022-11-09T06:06:13.128Z,1.33
2022-11-09T06:08:41.350Z,0.80
2022-11-09T06:11:10.261Z,0.47
2022-11-09T06:13:38.619Z,0.77
2022-11-09T06:16:07.304Z,0.83
2022-11-09T06:18:37.336Z,0.83
2022-11-09T06:21:06.021Z,0.73
2022-11-09T06:23:34.404Z,1.50
2022-11-09T06:26:03.279Z,0.63
2022-11-09T06:28:31.550Z,1.43
2022-11-09T06:31:01.074Z,0.53
2022-11-09T06:33:29.312Z,0.70
2022-11-09T06:35:59.484Z,1.23
2022-11-09T06:38:27.975Z,0.60
2022-11-09T06:40:56.374Z,1.00
2022-11-09T06:43:24.632Z,2.00
2022-11-09T06:45:52.979Z,0.70
2022-11-09T06:48:21.258Z,0.63
2022-11-09T06:50:49.470Z,0.50
2022-11-09T06:53:19.548Z,0.43
2022-11-09T06:55:50.914Z,2.70
2022-11-09T06:58:19.767Z,1.30
2022-11-09T07:00:48.120Z,4.87
2022-11-09T07:03:16.398Z,8.87
2022-11-09T07:05:44.783Z,4.67
2022-11-09T07:08:13.090Z,10.97
2022-11-09T07:10:42.672Z,10.00
2022-11-09T07:13:11.073Z,6.20
2022-11-09T07:15:39.414Z,5.67
2022-11-09T07:18:08.117Z,6.97
2022-11-09T07:20:36.480Z,5.47
2022-11-09T07:23:04.768Z,11.50
2022-11-09T07:25:33.615Z,7.20
2022-11-09T07:28:07.688Z,6.53
2022-11-09T07:30:36.593Z,6.47
2022-11-09T07:33:10.244Z,2.03
2022-11-09T07:35:39.021Z,4.50
2022-11-09T07:38:07.227Z,2.13
2022-11-09T07:40:35.451Z,1.33
2022-11-09T07:43:04.079Z,3.23
2022-11-09T07:45:33.966Z,0.80
2022-11-09T07:48:02.938Z,0.50
2022-11-09T07:50:31.751Z,2.73
2022-11-09T07:52:59.998Z,0.67
2022-11-09T07:55:28.370Z,3.03
2022-11-09T07:57:57.283Z,4.50
2022-11-09T08:00:25.745Z,1.10
2022-11-09T08:02:55.436Z,1.03
2022-11-09T08:05:23.789Z,1.87
2022-11-09T08:07:55.916Z,3.37
2022-11-09T08:10:24.250Z,0.60
2022-11-09T08:12:55.981Z,1.40
2022-11-09T08:15:24.328Z,1.93
2022-11-09T08:17:52.557Z,0.70
2022-11-09T08:20:22.310Z,2.90
2022-11-09T08:22:50.648Z,0.87
2022-11-09T08:25:18.972Z,0.40
2022-11-09T08:27:47.151Z,1.23
2022-11-09T08:30:15.960Z,2.37
2022-11-09T08:32:44.243Z,0.47
2022-11-09T08:35:13.545Z,0.50
2022-11-09T08:37:43.139Z,0.30
2022-11-09T08:40:11.544Z,3.00
2022-11-09T08:42:39.848Z,0.93
2022-11-09T08:45:08.415Z,2.47
2022-11-09T08:47:36.634Z,1.53
2022-11-09T08:50:05.419Z,0.83
2022-11-09T08:52:33.638Z,0.97
2022-11-09T08:55:03.510Z,1.47
2022-11-09T08:57:31.958Z,0.60
2022-11-09T09:00:00.198Z,2.27
2022-11-09T09:02:28.417Z,1.03
2022-11-09T09:04:56.785Z,1.03
2022-11-09T09:07:25.101Z,0.47
2022-11-09T09:09:53.307Z,3.37
2022-11-09T09:12:22.992Z,0.40
2022-11-09T09:14:51.500Z,2.07
2022-11-09T09:17:19.673Z,0.50
2022-11-09T09:19:50.140Z,0.60
2022-11-09T09:22:18.562Z,0.60
2022-11-09T09:24:46.749Z,0.30
2022-11-09T09:27:15.129Z,0.53
2022-11-09T09:29:44.964Z,1.10
2022-11-09T09:32:13.174Z,2.30
2022-11-09T09:34:41.538Z,0.47
2022-11-09T09:37:09.763Z,0.73
2022-11-09T09:39:37.979Z,2.47
2022-11-09T09:42:06.993Z,1.07
2022-11-09T09:44:36.235Z,0.63
2022-11-09T09:47:09.115Z,0.50
2022-11-09T09:49:38.020Z,0.37
2022-11-09T09:52:07.310Z,0.93
2022-11-09T09:54:35.887Z,1.03
2022-11-09T09:57:04.173Z,0.20
2022-11-09T09:59:34.905Z,1.70
2022-11-09T10:02:03.431Z,1.70
2022-11-09T10:04:36.720Z,3.03
2022-11-09T10:07:07.155Z,0.70
2022-11-09T10:09:40.136Z,1.60
2022-11-09T10:12:11.368Z,0.50
2022-11-09T10:14:42.705Z,0.37
2022-11-09T10:17:13.995Z,3.40
2022-11-09T10:19:53.021Z,0.40
2022-11-09T10:22:23.604Z,4.47
2022-11-09T10:25:17.163Z,1.80
2022-11-09T10:27:43.453Z,0.37
2022-11-09T10:30:14.209Z,0.50
2022-11-09T10:32:42.481Z,0.30
2022-11-09T10:35:17.545Z,0.40
2022-11-09T10:37:46.834Z,3.87
2022-11-09T10:40:18.958Z,116.57
2022-11-09T10:42:47.909Z,124.43
2022-11-09T10:45:23.560Z,100.23
2022-11-09T10:47:52.141Z,94.23
2022-11-09T10:50:24.886Z,51.67
2022-11-09T10:52:53.104Z,60.43
2022-11-09T10:55:25.888Z,46.23
2022-11-09T10:57:54.645Z,25.13
2022-11-09T11:00:23.162Z,34.60
2022-11-09T11:02:52.136Z,18.87
2022-11-09T11:05:34.547Z,18.77
2022-11-09T11:08:26.667Z,24.57
2022-11-09T11:11:19.544Z,14.80
2022-11-09T11:13:49.953Z,12.07
2022-11-09T11:16:25.162Z,18.40
2022-11-09T11:18:53.500Z,13.20
2022-11-09T11:21:23.465Z,8.63
2022-11-09T11:24:10.474Z,8.57
2022-11-09T11:26:39.629Z,5.60
2022-11-09T11:29:08.946Z,10.17
2022-11-09T11:31:37.305Z,3.03
2022-11-09T11:34:07.032Z,1.63
2022-11-09T11:36:40.833Z,2.93
2022-11-09T11:39:14.265Z,1.87
2022-11-09T11:42:00.276Z,1.90
2022-11-09T11:44:32.182Z,1.47
2022-11-09T11:47:02.733Z,0.80
2022-11-09T11:49:46.710Z,3.60
2022-11-09T11:52:17.984Z,3.03
2022-11-09T11:54:49.952Z,2.60
2022-11-09T11:57:19.777Z,1.87
2022-11-09T12:00:00.272Z,3.07
2022-11-09T12:02:47.033Z,0.70
2022-11-09T12:05:27.595Z,1.07
2022-11-09T12:07:58.761Z,1.87
2022-11-09T12:10:31.225Z,1.10
2022-11-09T12:13:02.201Z,0.63
2022-11-09T12:15:33.513Z,1.97
2022-11-09T12:18:05.290Z,0.90
2022-11-09T12:20:34.911Z,0.70
2022-11-09T12:23:10.371Z,3.13
2022-11-09T12:25:40.169Z,0.87
2022-11-09T12:28:13.595Z,2.03
2022-11-09T12:30:45.205Z,1.77
2022-11-09T12:33:14.970Z,1.40
2022-11-09T12:35:44.100Z,2.20
2022-11-09T12:38:15.171Z,1.30
2022-11-09T12:40:44.761Z,1.00
2022-11-09T12:43:16.725Z,0.63
2022-11-09T12:45:45.162Z,2.00
2022-11-09T12:48:18.504Z,2.57
2022-11-09T12:50:46.724Z,1.60
2022-11-09T12:53:16.480Z,2.93
2022-11-09T12:55:45.891Z,1.27
2022-11-09T12:58:24.104Z,1.77
2022-11-09T13:00:53.590Z,0.57
2022-11-09T13:03:23.795Z,0.70
2022-11-09T13:06:10.300Z,0.83
2022-11-09T13:08:40.203Z,0.73
2022-11-09T13:11:21.763Z,0.80
2022-11-09T13:13:49.975Z,2.23
2022-11-09T13:16:34.693Z,0.50
2022-11-09T13:19:02.916Z,0.87
2022-11-09T13:21:38.156Z,1.43
2022-11-09T13:24:25.339Z,1.63
2022-11-09T13:26:56.526Z,0.87
2022-11-09T13:29:25.540Z,1.53
2022-11-09T13:32:07.730Z,0.40
2022-11-09T13:34:45.836Z,0.73
2022-11-09T13:37:32.664Z,0.83
2022-11-09T13:40:00.963Z,0.87
2022-11-09T13:42:31.078Z,0.30
2022-11-09T13:45:14.212Z,1.93
2022-11-09T13:47:42.741Z,2.43
2022-11-09T13:50:13.292Z,0.43
2022-11-09T13:52:51.653Z,0.27
2022-11-09T13:55:40.698Z,0.77
2022-11-09T13:58:13.974Z,1.03
2022-11-09T14:00:46.764Z,0.90
2022-11-09T14:03:19.791Z,0.57
2022-11-09T14:05:48.228Z,1.87
2022-11-09T14:08:18.781Z,0.50
2022-11-09T14:10:48.495Z,0.23
2022-11-09T14:13:40.648Z,2.37
2022-11-09T14:16:12.039Z,2.77
2022-11-09T14:18:42.167Z,0.93
2022-11-09T14:21:15.958Z,0.70
2022-11-09T14:23:44.258Z,0.33
2022-11-09T14:26:17.785Z,0.40
2022-11-09T14:28:46.038Z,0.40
2022-11-09T14:31:25.462Z,5.17
2022-11-09T14:34:00.475Z,0.67
2022-11-09T14:36:28.969Z,0.50
2022-11-09T14:38:57.506Z,1.37
2022-11-09T14:41:26.235Z,0.43
2022-11-09T14:43:54.768Z,1.17
2022-11-09T14:46:23.701Z,0.40
2022-11-09T14:48:53.543Z,1.23
2022-11-09T14:51:21.856Z,0.57
2022-11-09T14:53:50.449Z,0.83
2022-11-09T14:56:19.263Z,0.30
2022-11-09T14:58:48.550Z,3.40
2022-11-09T15:01:21.648Z,0.40
2022-11-09T15:04:04.809Z,0.60
2022-11-09T15:06:34.627Z,1.80
2022-11-09T15:09:03.896Z,0.37
2022-11-09T15:11:35.126Z,0.77
2022-11-09T15:14:12.255Z,0.33
2022-11-09T15:16:40.494Z,0.43
2022-11-09T15:19:20.561Z,1.63
2022-11-09T15:21:50.272Z,0.23
2022-11-09T15:24:19.135Z,0.60
2022-11-09T15:26:47.743Z,0.40
2022-11-09T15:29:40.397Z,0.30
2022-11-09T15:32:13.553Z,0.93
2022-11-09T15:34:42.439Z,0.30
2022-11-09T15:37:22.188Z,0.53
2022-11-09T15:39:50.504Z,0.67
2022-11-09T15:42:18.793Z,0.90
2022-11-09T15:44:47.164Z,0.67
2022-11-09T15:47:21.464Z,0.27
2022-11-09T15:49:49.673Z,0.30
2022-11-09T15:52:17.917Z,2.20
2022-11-09T15:54:47.641Z,0.47
2022-11-09T15:57:18.696Z,3.20
2022-11-09T15:59:47.533Z,0.53
2022-11-09T16:02:15.862Z,0.53
2022-11-09T16:04:44.078Z,0.40
2022-11-09T16:07:13.118Z,1.07
2022-11-09T16:09:41.586Z,0.93
2022-11-09T16:12:11.250Z,0.87
2022-11-09T16:14:39.664Z,2.30
2022-11-09T16:17:08.037Z,0.43
2022-11-09T16:19:36.347Z,1.27
2022-11-09T16:22:05.229Z,0.57
2022-11-09T16:24:33.537Z,0.83
2022-11-09T16:27:01.724Z,0.57
2022-11-09T16:29:31.912Z,0.60
2022-11-09T16:32:00.905Z,1.53
2022-11-09T16:34:29.144Z,0.53
2022-11-09T16:36:57.483Z,1.20
2022-11-09T16:39:25.735Z,0.97
2022-11-09T16:41:53.964Z,1.80
2022-11-09T16:44:23.650Z,1.23
2022-11-09T16:46:53.276Z,0.60
2022-11-09T16:49:21.495Z,1.30
2022-11-09T16:51:49.879Z,1.67
2022-11-09T16:54:18.129Z,2.83
2022-11-09T16:56:47.986Z,1.73
2022-11-09T16:59:16.248Z,2.40
2022-11-09T17:01:44.509Z,3.77
2022-11-09T17:04:14.219Z,3.77
2022-11-09T17:06:42.605Z,1.17
2022-11-09T17:09:10.964Z,3.37
2022-11-09T17:11:39.300Z,3.70
2022-11-09T17:14:07.521Z,2.83
2022-11-09T17:16:36.029Z,1.30
2022-11-09T17:19:06.213Z,2.60
2022-11-09T17:21:35.916Z,1.43
2022-11-09T17:24:06.301Z,5.40
2022-11-09T17:26:34.500Z,3.27
2022-11-09T17:29:02.744Z,6.60
2022-11-09T17:31:31.035Z,3.40
2022-11-09T17:34:01.338Z,3.17
2022-11-09T17:36:57.317Z,2.27
2022-11-09T17:39:19.568Z,5.27
2022-11-09T17:41:47.935Z,5.67
2022-11-09T17:44:16.261Z,5.60
2022-11-09T17:46:44.740Z,2.77
2022-11-09T17:49:13.028Z,2.57
2022-11-09T17:51:41.333Z,2.60
2022-11-09T17:54:09.553Z,3.77
2022-11-09T17:56:39.938Z,1.97
2022-11-09T17:59:08.162Z,2.03
2022-11-09T18:01:41.602Z,2.70
2022-11-09T18:04:10.442Z,1.90
2022-11-09T18:06:38.715Z,2.53
2022-11-09T18:11:56.687Z,2.63
2022-11-09T18:14:24.937Z,2.80
2022-11-09T18:16:53.178Z,3.47
2022-11-09T18:19:21.535Z,2.37
2022-11-09T18:21:49.800Z,2.90
2022-11-09T18:24:18.084Z,3.20
2022-11-09T18:26:46.445Z,2.40
2022-11-09T18:29:16.035Z,1.73
2022-11-09T18:31:44.370Z,4.00
2022-11-09T18:34:12.761Z,1.77
2022-11-09T18:36:41.290Z,2.43
2022-11-09T18:39:09.542Z,3.80
2022-11-09T18:41:37.770Z,2.23
2022-11-09T18:44:06.061Z,1.57
2022-11-09T18:46:35.779Z,2.50
2022-11-09T18:49:08.883Z,2.63
2022-11-09T18:51:39.904Z,2.53
2022-11-09T18:54:08.183Z,3.23
2022-11-09T18:56:36.397Z,2.60
2022-11-09T18:59:04.909Z,3.73
2022-11-09T19:01:33.117Z,2.13
2022-11-09T19:04:02.687Z,2.20
2022-11-09T19:06:31.079Z,5.43
2022-11-09T19:09:17.074Z,2.57
2022-11-09T19:11:45.485Z,4.57
2022-11-09T19:14:13.768Z,2.27
2022-11-09T19:16:42.026Z,2.20
2022-11-09T19:19:12.812Z,1.97
2022-11-09T19:21:41.396Z,6.07
2022-11-09T19:24:10.090Z,2.10
2022-11-09T19:26:38.358Z,1.67
2022-11-09T19:29:07.536Z,2.20
2022-11-09T19:31:36.454Z,2.43
2022-11-09T19:34:04.781Z,1.63
2022-11-09T19:36:34.693Z,4.27
2022-11-09T19:39:02.961Z,1.50
2022-11-09T19:41:31.224Z,2.07
2022-11-09T19:43:59.594Z,1.37
2022-11-09T19:46:28.043Z,1.63
2022-11-09T19:48:56.484Z,2.50
2022-11-09T19:51:24.759Z,2.60
2022-11-09T19:53:54.841Z,1.50
2022-11-09T19:56:23.388Z,4.13
2022-11-09T19:58:51.851Z,2.23
2022-11-09T20:01:20.244Z,5.40
2022-11-09T20:03:50.330Z,2.83
2022-11-09T20:06:18.636Z,2.70
2022-11-09T20:08:47.536Z,0.93
2022-11-09T20:11:32.177Z,1.40
2022-11-09T20:14:00.555Z,2.47
2022-11-09T20:16:28.815Z,1.00
2022-11-09T20:18:57.067Z,1.07
2022-11-09T20:21:25.473Z,2.53
2022-11-09T20:23:53.727Z,5.00
2022-11-09T20:26:23.371Z,1.30
2022-11-09T20:28:52.028Z,1.67
2022-11-09T20:31:20.457Z,2.57
2022-11-09T20:33:48.707Z,3.33
2022-11-09T20:36:18.776Z,1.93
2022-11-09T20:38:47.033Z,2.63
2022-11-09T20:41:15.260Z,3.80
2022-11-09T20:43:45.047Z,1.97
2022-11-09T20:46:16.347Z,1.73
2022-11-09T20:48:53.999Z,2.23
2022-11-09T20:51:23.850Z,1.50
2022-11-09T20:53:52.238Z,1.33
2022-11-09T20:56:20.663Z,1.83
2022-11-09T20:58:50.938Z,1.77
2022-11-09T21:01:20.079Z,2.13
2022-11-09T21:03:48.832Z,1.03
2022-11-09T21:06:17.315Z,3.63
2022-11-09T21:08:46.160Z,2.80
2022-11-09T21:11:14.377Z,2.00
2022-11-09T21:13:43.959Z,2.80
2022-11-09T21:16:13.860Z,0.90
2022-11-09T21:18:42.214Z,4.23
2022-11-09T21:21:10.875Z,1.83
2022-11-09T21:23:56.815Z,4.13
2022-11-09T21:26:42.762Z,2.87
2022-11-09T21:29:29.367Z,1.57
2022-11-09T21:31:59.009Z,2.53
2022-11-09T21:34:28.708Z,2.80
2022-11-09T21:36:58.786Z,1.93
2022-11-09T21:39:27.088Z,2.83
2022-11-09T21:41:55.332Z,3.83
2022-11-09T21:44:23.708Z,2.70
2022-11-09T21:46:51.935Z,1.53
2022-11-09T21:49:21.536Z,3.60
2022-11-09T21:51:49.921Z,1.17
2022-11-09T21:54:18.202Z,2.13
2022-11-09T21:56:46.443Z,1.63
2022-11-09T21:59:14.694Z,1.33
2022-11-09T22:01:42.951Z,3.73
2022-11-09T22:04:11.209Z,1.07
2022-11-09T22:06:42.070Z,1.30
2022-11-09T22:09:10.620Z,1.40
2022-11-09T22:11:56.551Z,4.40
2022-11-09T22:14:42.471Z,1.57
2022-11-09T22:17:12.039Z,3.63
2022-11-09T22:19:58.006Z,4.93
2022-11-09T22:22:27.720Z,3.03
2022-11-09T22:24:56.028Z,1.93
2022-11-09T22:27:24.247Z,1.87
2022-11-09T22:29:52.574Z,2.50
2022-11-09T22:32:20.959Z,1.63
2022-11-09T22:34:49.250Z,2.43
2022-11-09T22:37:17.493Z,2.77
2022-11-09T22:39:47.783Z,1.70
2022-11-09T22:42:16.120Z,1.87
2022-11-09T22:44:44.339Z,2.40
2022-11-09T22:47:13.348Z,5.37
2022-11-09T22:49:41.645Z,1.67
2022-11-09T22:52:10.261Z,1.37
2022-11-09T22:54:38.524Z,1.30
2022-11-09T22:57:08.243Z,2.50
2022-11-09T22:59:36.454Z,2.27
2022-11-09T23:02:04.722Z,2.40
2022-11-09T23:04:33.060Z,1.47
2022-11-09T23:07:01.340Z,2.17
2022-11-09T23:09:29.637Z,2.13
2022-11-09T23:11:58.017Z,2.23
2022-11-09T23:14:41.503Z,4.03
2022-11-09T23:17:30.443Z,1.27
2022-11-09T23:19:57.683Z,2.37
2022-11-09T23:22:25.846Z,1.37
2022-11-09T23:25:11.908Z,1.80
2022-11-09T23:27:40.127Z,3.00
2022-11-09T23:30:10.232Z,5.13
2022-11-09T23:32:38.640Z,2.50
2022-11-09T23:35:07.398Z,4.13
2022-11-09T23:37:35.602Z,1.30
2022-11-09T23:40:04.037Z,5.03
2022-11-09T23:42:32.242Z,2.23
2022-11-09T23:45:00.468Z,2.40
2022-11-09T23:47:30.035Z,3.83
2022-11-09T23:49:58.306Z,1.73
2022-11-09T23:52:26.664Z,1.27
2022-11-09T23:54:54.929Z,2.43
2022-11-09T23:57:23.103Z,1.53
2022-11-09T23:59:51.356Z,3.47
